sensor_id;sensor_type;location;lat;lon;timestamp;P1;durP1;ratioP1;P2;durP2;ratioP2
2898;SDS011;1459;50.864;6.438;2022-12-07T00:01:47;50.63;;;30.52;;
2898;SDS011;1459;50.864;6.438;2022-12-07T00:04:15;41.47;;;28.27;;
2898;SDS011;1459;50.864;6.438;2022-12-07T00:06:43;45.47;;;30.35;;
2898;SDS011;1459;50.864;6.438;2022-12-07T00:09:12;44.85;;;31.63;;
2898;SDS011;1459;50.864;6.438;2022-12-07T00:11:41;40.30;;;27.55;;
2898;SDS011;1459;50.864;6.438;2022-12-07T00:14:10;38.63;;;28.05;;
2898;SDS011;1459;50.864;6.438;2022-12-07T00:16:39;41.17;;;28.63;;
2898;SDS011;1459;50.864;6.438;2022-12-07T00:19:06;43.28;;;29.15;;
2898;SDS011;1459;50.864;6.438;2022-12-07T00:21:35;35.83;;;26.90;;
2898;SDS011;1459;50.864;6.438;2022-12-07T00:24:03;45.97;;;28.80;;
2898;SDS011;1459;50.864;6.438;2022-12-07T00:26:31;39.50;;;27.92;;
2898;SDS011;1459;50.864;6.438;2022-12-07T00:29:04;47.38;;;30.23;;
2898;SDS011;1459;50.864;6.438;2022-12-07T00:31:33;42.35;;;28.45;;
2898;SDS011;1459;50.864;6.438;2022-12-07T00:34:03;38.97;;;28.20;;
2898;SDS011;1459;50.864;6.438;2022-12-07T00:36:31;42.97;;;29.73;;
2898;SDS011;1459;50.864;6.438;2022-12-07T00:38:58;49.97;;;30.92;;
2898;SDS011;1459;50.864;6.438;2022-12-07T00:41:27;47.00;;;31.52;;
2898;SDS011;1459;50.864;6.438;2022-12-07T00:43:55;45.47;;;30.40;;
2898;SDS011;1459;50.864;6.438;2022-12-07T00:46:24;46.88;;;31.08;;
2898;SDS011;1459;50.864;6.438;2022-12-07T00:48:51;44.78;;;31.85;;
2898;SDS011;1459;50.864;6.438;2022-12-07T00:51:20;45.50;;;29.48;;
2898;SDS011;1459;50.864;6.438;2022-12-07T00:53:49;42.95;;;28.33;;
2898;SDS011;1459;50.864;6.438;2022-12-07T00:56:17;48.45;;;31.25;;
2898;SDS011;1459;50.864;6.438;2022-12-07T00:58:49;45.95;;;29.08;;
2898;SDS011;1459;50.864;6.438;2022-12-07T01:01:17;48.63;;;30.95;;
2898;SDS011;1459;50.864;6.438;2022-12-07T01:03:45;45.08;;;32.00;;
2898;SDS011;1459;50.864;6.438;2022-12-07T01:06:13;45.35;;;31.23;;
2898;SDS011;1459;50.864;6.438;2022-12-07T01:08:41;42.75;;;32.30;;
2898;SDS011;1459;50.864;6.438;2022-12-07T01:11:09;44.45;;;28.30;;
2898;SDS011;1459;50.864;6.438;2022-12-07T01:13:39;41.20;;;29.42;;
2898;SDS011;1459;50.864;6.438;2022-12-07T01:16:07;45.47;;;30.13;;
2898;SDS011;1459;50.864;6.438;2022-12-07T01:18:36;48.35;;;30.27;;
2898;SDS011;1459;50.864;6.438;2022-12-07T01:21:05;45.95;;;29.67;;
2898;SDS011;1459;50.864;6.438;2022-12-07T01:23:35;42.33;;;30.90;;
2898;SDS011;1459;50.864;6.438;2022-12-07T01:26:03;48.15;;;31.38;;
2898;SDS011;1459;50.864;6.438;2022-12-07T01:28:32;39.85;;;28.05;;
2898;SDS011;1459;50.864;6.438;2022-12-07T01:31:00;45.85;;;29.20;;
2898;SDS011;1459;50.864;6.438;2022-12-07T01:33:29;44.15;;;29.13;;
2898;SDS011;1459;50.864;6.438;2022-12-07T01:36:02;40.92;;;28.15;;
2898;SDS011;1459;50.864;6.438;2022-12-07T01:38:31;46.17;;;31.50;;
2898;SDS011;1459;50.864;6.438;2022-12-07T01:41:00;39.10;;;28.45;;
2898;SDS011;1459;50.864;6.438;2022-12-07T01:43:31;38.88;;;28.38;;
2898;SDS011;1459;50.864;6.438;2022-12-07T01:45:59;38.88;;;28.48;;
2898;SDS011;1459;50.864;6.438;2022-12-07T01:48:27;42.20;;;28.38;;
2898;SDS011;1459;50.864;6.438;2022-12-07T01:50:59;36.88;;;28.13;;
2898;SDS011;1459;50.864;6.438;2022-12-07T01:53:28;41.80;;;27.13;;
2898;SDS011;1459;50.864;6.438;2022-12-07T01:55:58;38.05;;;26.35;;
2898;SDS011;1459;50.864;6.438;2022-12-07T01:58:26;34.40;;;25.75;;
2898;SDS011;1459;50.864;6.438;2022-12-07T02:00:54;41.75;;;28.40;;
2898;SDS011;1459;50.864;6.438;2022-12-07T02:03:22;38.55;;;27.27;;
2898;SDS011;1459;50.864;6.438;2022-12-07T02:05:53;33.60;;;25.70;;
2898;SDS011;1459;50.864;6.438;2022-12-07T02:08:20;37.08;;;25.75;;
2898;SDS011;1459;50.864;6.438;2022-12-07T02:10:52;32.70;;;25.45;;
2898;SDS011;1459;50.864;6.438;2022-12-07T02:13:20;40.03;;;28.15;;
2898;SDS011;1459;50.864;6.438;2022-12-07T02:16:02;38.85;;;26.45;;
2898;SDS011;1459;50.864;6.438;2022-12-07T02:18:43;41.13;;;29.13;;
2898;SDS011;1459;50.864;6.438;2022-12-07T02:21:20;45.45;;;28.45;;
2898;SDS011;1459;50.864;6.438;2022-12-07T02:24:02;36.63;;;26.75;;
2898;SDS011;1459;50.864;6.438;2022-12-07T02:29:34;43.83;;;29.42;;
2898;SDS011;1459;50.864;6.438;2022-12-07T02:32:06;45.55;;;29.23;;
2898;SDS011;1459;50.864;6.438;2022-12-07T02:34:39;48.35;;;32.83;;
2898;SDS011;1459;50.864;6.438;2022-12-07T02:37:14;43.78;;;29.88;;
2898;SDS011;1459;50.864;6.438;2022-12-07T02:39:53;44.75;;;30.10;;
2898;SDS011;1459;50.864;6.438;2022-12-07T02:42:26;46.60;;;30.60;;
2898;SDS011;1459;50.864;6.438;2022-12-07T02:44:58;49.25;;;33.03;;
2898;SDS011;1459;50.864;6.438;2022-12-07T02:47:26;45.85;;;30.05;;
2898;SDS011;1459;50.864;6.438;2022-12-07T02:49:55;50.28;;;32.47;;
2898;SDS011;1459;50.864;6.438;2022-12-07T02:52:22;47.30;;;31.30;;
2898;SDS011;1459;50.864;6.438;2022-12-07T02:54:49;53.03;;;33.72;;
2898;SDS011;1459;50.864;6.438;2022-12-07T02:57:24;49.28;;;32.78;;
2898;SDS011;1459;50.864;6.438;2022-12-07T03:00:04;49.40;;;30.95;;
2898;SDS011;1459;50.864;6.438;2022-12-07T03:02:38;51.97;;;33.45;;
2898;SDS011;1459;50.864;6.438;2022-12-07T03:05:24;49.28;;;33.00;;
2898;SDS011;1459;50.864;6.438;2022-12-07T03:08:00;51.75;;;33.40;;
2898;SDS011;1459;50.864;6.438;2022-12-07T03:10:33;53.33;;;31.83;;
2898;SDS011;1459;50.864;6.438;2022-12-07T03:13:07;46.17;;;30.52;;
2898;SDS011;1459;50.864;6.438;2022-12-07T03:15:41;49.80;;;31.23;;
2898;SDS011;1459;50.864;6.438;2022-12-07T03:18:13;52.45;;;33.22;;
2898;SDS011;1459;50.864;6.438;2022-12-07T03:20:44;58.60;;;33.40;;
2898;SDS011;1459;50.864;6.438;2022-12-07T03:23:13;57.78;;;34.40;;
2898;SDS011;1459;50.864;6.438;2022-12-07T03:25:44;49.83;;;31.85;;
2898;SDS011;1459;50.864;6.438;2022-12-07T03:28:15;50.10;;;31.13;;
2898;SDS011;1459;50.864;6.438;2022-12-07T03:30:47;54.67;;;30.13;;
2898;SDS011;1459;50.864;6.438;2022-12-07T03:33:20;49.08;;;30.20;;
2898;SDS011;1459;50.864;6.438;2022-12-07T03:35:53;41.70;;;28.50;;
2898;SDS011;1459;50.864;6.438;2022-12-07T03:38:27;48.35;;;30.80;;
2898;SDS011;1459;50.864;6.438;2022-12-07T03:41:01;46.63;;;29.27;;
2898;SDS011;1459;50.864;6.438;2022-12-07T03:43:32;51.25;;;31.48;;
2898;SDS011;1459;50.864;6.438;2022-12-07T03:46:04;51.13;;;30.30;;
2898;SDS011;1459;50.864;6.438;2022-12-07T03:48:40;46.33;;;28.55;;
2898;SDS011;1459;50.864;6.438;2022-12-07T03:51:15;47.22;;;29.90;;
2898;SDS011;1459;50.864;6.438;2022-12-07T03:53:48;56.22;;;31.70;;
2898;SDS011;1459;50.864;6.438;2022-12-07T03:56:21;49.63;;;29.63;;
2898;SDS011;1459;50.864;6.438;2022-12-07T03:58:49;48.30;;;30.25;;
2898;SDS011;1459;50.864;6.438;2022-12-07T04:01:19;44.63;;;28.65;;
2898;SDS011;1459;50.864;6.438;2022-12-07T04:03:46;43.90;;;27.60;;
2898;SDS011;1459;50.864;6.438;2022-12-07T04:06:13;48.90;;;29.65;;
2898;SDS011;1459;50.864;6.438;2022-12-07T04:08:40;47.55;;;29.35;;
2898;SDS011;1459;50.864;6.438;2022-12-07T04:11:07;47.28;;;29.45;;
2898;SDS011;1459;50.864;6.438;2022-12-07T04:13:34;46.95;;;30.27;;
2898;SDS011;1459;50.864;6.438;2022-12-07T04:16:23;41.05;;;28.52;;
2898;SDS011;1459;50.864;6.438;2022-12-07T04:18:50;41.70;;;28.48;;
2898;SDS011;1459;50.864;6.438;2022-12-07T04:21:17;49.38;;;29.35;;
2898;SDS011;1459;50.864;6.438;2022-12-07T04:23:44;53.00;;;31.63;;
2898;SDS011;1459;50.864;6.438;2022-12-07T04:26:11;43.83;;;29.50;;
2898;SDS011;1459;50.864;6.438;2022-12-07T04:28:38;45.63;;;28.17;;
2898;SDS011;1459;50.864;6.438;2022-12-07T04:31:05;52.38;;;29.70;;
2898;SDS011;1459;50.864;6.438;2022-12-07T04:33:33;45.60;;;29.08;;
2898;SDS011;1459;50.864;6.438;2022-12-07T04:36:01;45.63;;;30.10;;
2898;SDS011;1459;50.864;6.438;2022-12-07T04:38:28;53.50;;;32.20;;
2898;SDS011;1459;50.864;6.438;2022-12-07T04:40:55;52.88;;;33.65;;
2898;SDS011;1459;50.864;6.438;2022-12-07T04:43:22;55.30;;;34.22;;
2898;SDS011;1459;50.864;6.438;2022-12-07T04:45:49;47.45;;;29.27;;
2898;SDS011;1459;50.864;6.438;2022-12-07T04:48:16;49.45;;;31.80;;
2898;SDS011;1459;50.864;6.438;2022-12-07T04:50:47;54.95;;;32.33;;
2898;SDS011;1459;50.864;6.438;2022-12-07T04:53:14;45.10;;;29.77;;
2898;SDS011;1459;50.864;6.438;2022-12-07T04:55:43;57.30;;;32.83;;
2898;SDS011;1459;50.864;6.438;2022-12-07T04:58:10;52.70;;;32.53;;
2898;SDS011;1459;50.864;6.438;2022-12-07T05:00:38;52.38;;;30.15;;
2898;SDS011;1459;50.864;6.438;2022-12-07T05:03:05;60.20;;;31.45;;
2898;SDS011;1459;50.864;6.438;2022-12-07T05:05:32;52.28;;;31.95;;
2898;SDS011;1459;50.864;6.438;2022-12-07T05:08:01;54.22;;;32.00;;
2898;SDS011;1459;50.864;6.438;2022-12-07T05:10:28;51.35;;;29.45;;
2898;SDS011;1459;50.864;6.438;2022-12-07T05:12:55;54.53;;;32.03;;
2898;SDS011;1459;50.864;6.438;2022-12-07T05:15:22;48.70;;;31.85;;
2898;SDS011;1459;50.864;6.438;2022-12-07T05:17:49;49.95;;;30.02;;
2898;SDS011;1459;50.864;6.438;2022-12-07T05:20:17;51.60;;;29.40;;
2898;SDS011;1459;50.864;6.438;2022-12-07T05:22:44;51.75;;;31.73;;
2898;SDS011;1459;50.864;6.438;2022-12-07T05:25:12;51.08;;;30.38;;
2898;SDS011;1459;50.864;6.438;2022-12-07T05:27:39;51.30;;;31.90;;
2898;SDS011;1459;50.864;6.438;2022-12-07T05:30:07;44.75;;;29.42;;
2898;SDS011;1459;50.864;6.438;2022-12-07T05:32:34;47.05;;;28.98;;
2898;SDS011;1459;50.864;6.438;2022-12-07T05:35:01;50.13;;;30.42;;
2898;SDS011;1459;50.864;6.438;2022-12-07T05:37:29;56.10;;;31.60;;
2898;SDS011;1459;50.864;6.438;2022-12-07T05:39:55;48.45;;;28.65;;
2898;SDS011;1459;50.864;6.438;2022-12-07T05:42:24;55.88;;;30.75;;
2898;SDS011;1459;50.864;6.438;2022-12-07T05:44:51;48.25;;;29.20;;
2898;SDS011;1459;50.864;6.438;2022-12-07T05:47:18;50.60;;;31.42;;
2898;SDS011;1459;50.864;6.438;2022-12-07T05:49:45;43.78;;;26.63;;
2898;SDS011;1459;50.864;6.438;2022-12-07T05:52:12;47.17;;;27.25;;
2898;SDS011;1459;50.864;6.438;2022-12-07T05:54:39;48.03;;;30.73;;
2898;SDS011;1459;50.864;6.438;2022-12-07T05:57:06;46.95;;;28.20;;
2898;SDS011;1459;50.864;6.438;2022-12-07T05:59:34;47.72;;;27.77;;
2898;SDS011;1459;50.864;6.438;2022-12-07T06:02:01;47.10;;;27.33;;
2898;SDS011;1459;50.864;6.438;2022-12-07T06:04:30;52.45;;;31.38;;
2898;SDS011;1459;50.864;6.438;2022-12-07T06:06:59;48.10;;;28.30;;
2898;SDS011;1459;50.864;6.438;2022-12-07T06:09:27;45.53;;;27.50;;
2898;SDS011;1459;50.864;6.438;2022-12-07T06:11:54;45.33;;;25.83;;
2898;SDS011;1459;50.864;6.438;2022-12-07T06:14:41;46.42;;;27.63;;
2898;SDS011;1459;50.864;6.438;2022-12-07T06:17:08;41.25;;;25.73;;
2898;SDS011;1459;50.864;6.438;2022-12-07T06:19:36;45.55;;;26.35;;
2898;SDS011;1459;50.864;6.438;2022-12-07T06:22:03;43.20;;;27.20;;
2898;SDS011;1459;50.864;6.438;2022-12-07T06:24:31;47.40;;;27.65;;
2898;SDS011;1459;50.864;6.438;2022-12-07T06:26:59;46.50;;;27.08;;
2898;SDS011;1459;50.864;6.438;2022-12-07T06:29:26;43.15;;;26.02;;
2898;SDS011;1459;50.864;6.438;2022-12-07T06:31:54;44.17;;;25.25;;
2898;SDS011;1459;50.864;6.438;2022-12-07T06:34:22;43.83;;;26.58;;
2898;SDS011;1459;50.864;6.438;2022-12-07T06:36:50;44.10;;;26.92;;
2898;SDS011;1459;50.864;6.438;2022-12-07T06:39:18;47.80;;;27.35;;
2898;SDS011;1459;50.864;6.438;2022-12-07T06:41:46;37.38;;;25.25;;
2898;SDS011;1459;50.864;6.438;2022-12-07T06:44:13;37.85;;;24.05;;
2898;SDS011;1459;50.864;6.438;2022-12-07T06:46:40;42.72;;;26.40;;
2898;SDS011;1459;50.864;6.438;2022-12-07T06:49:08;41.03;;;24.77;;
2898;SDS011;1459;50.864;6.438;2022-12-07T06:51:36;38.22;;;23.95;;
2898;SDS011;1459;50.864;6.438;2022-12-07T06:54:06;41.35;;;24.05;;
2898;SDS011;1459;50.864;6.438;2022-12-07T06:56:33;42.20;;;25.77;;
2898;SDS011;1459;50.864;6.438;2022-12-07T06:59:00;37.03;;;23.05;;
2898;SDS011;1459;50.864;6.438;2022-12-07T07:01:27;37.47;;;22.90;;
2898;SDS011;1459;50.864;6.438;2022-12-07T07:03:54;35.53;;;22.48;;
2898;SDS011;1459;50.864;6.438;2022-12-07T07:06:23;34.70;;;22.33;;
2898;SDS011;1459;50.864;6.438;2022-12-07T07:08:50;34.10;;;20.85;;
2898;SDS011;1459;50.864;6.438;2022-12-07T07:11:17;45.63;;;21.98;;
2898;SDS011;1459;50.864;6.438;2022-12-07T07:13:44;35.60;;;22.50;;
2898;SDS011;1459;50.864;6.438;2022-12-07T07:16:13;41.97;;;24.00;;
2898;SDS011;1459;50.864;6.438;2022-12-07T07:18:41;34.88;;;22.80;;
2898;SDS011;1459;50.864;6.438;2022-12-07T07:21:08;39.50;;;23.65;;
2898;SDS011;1459;50.864;6.438;2022-12-07T07:23:36;47.63;;;24.38;;
2898;SDS011;1459;50.864;6.438;2022-12-07T07:26:03;33.88;;;23.42;;
2898;SDS011;1459;50.864;6.438;2022-12-07T07:28:30;32.22;;;20.45;;
2898;SDS011;1459;50.864;6.438;2022-12-07T07:30:58;42.70;;;23.90;;
2898;SDS011;1459;50.864;6.438;2022-12-07T07:33:25;45.42;;;26.98;;
2898;SDS011;1459;50.864;6.438;2022-12-07T07:35:52;39.63;;;24.95;;
2898;SDS011;1459;50.864;6.438;2022-12-07T07:38:18;41.25;;;26.25;;
2898;SDS011;1459;50.864;6.438;2022-12-07T07:40:47;32.88;;;23.42;;
2898;SDS011;1459;50.864;6.438;2022-12-07T07:43:14;41.53;;;23.42;;
2898;SDS011;1459;50.864;6.438;2022-12-07T07:45:41;30.50;;;21.02;;
2898;SDS011;1459;50.864;6.438;2022-12-07T07:48:08;35.80;;;22.50;;
2898;SDS011;1459;50.864;6.438;2022-12-07T07:50:35;34.92;;;24.25;;
2898;SDS011;1459;50.864;6.438;2022-12-07T07:53:02;36.70;;;24.23;;
2898;SDS011;1459;50.864;6.438;2022-12-07T07:55:29;38.67;;;22.55;;
2898;SDS011;1459;50.864;6.438;2022-12-07T07:57:58;39.97;;;23.70;;
2898;SDS011;1459;50.864;6.438;2022-12-07T08:00:27;48.08;;;25.35;;
2898;SDS011;1459;50.864;6.438;2022-12-07T08:02:55;42.28;;;25.45;;
2898;SDS011;1459;50.864;6.438;2022-12-07T08:05:22;43.28;;;25.35;;
2898;SDS011;1459;50.864;6.438;2022-12-07T08:07:49;39.40;;;24.05;;
2898;SDS011;1459;50.864;6.438;2022-12-07T08:10:16;42.45;;;26.30;;
2898;SDS011;1459;50.864;6.438;2022-12-07T08:12:43;47.42;;;26.25;;
2898;SDS011;1459;50.864;6.438;2022-12-07T08:15:30;45.85;;;27.70;;
2898;SDS011;1459;50.864;6.438;2022-12-07T08:17:57;44.17;;;26.00;;
2898;SDS011;1459;50.864;6.438;2022-12-07T08:20:24;45.88;;;28.92;;
2898;SDS011;1459;50.864;6.438;2022-12-07T08:22:52;47.38;;;25.98;;
2898;SDS011;1459;50.864;6.438;2022-12-07T08:25:20;56.20;;;28.75;;
2898;SDS011;1459;50.864;6.438;2022-12-07T08:27:48;47.08;;;27.58;;
2898;SDS011;1459;50.864;6.438;2022-12-07T08:30:16;47.00;;;28.90;;
2898;SDS011;1459;50.864;6.438;2022-12-07T08:32:45;49.47;;;27.50;;
2898;SDS011;1459;50.864;6.438;2022-12-07T08:35:13;47.42;;;28.00;;
2898;SDS011;1459;50.864;6.438;2022-12-07T08:37:41;53.22;;;29.70;;
2898;SDS011;1459;50.864;6.438;2022-12-07T08:40:09;44.92;;;26.95;;
2898;SDS011;1459;50.864;6.438;2022-12-07T08:42:40;48.30;;;27.55;;
2898;SDS011;1459;50.864;6.438;2022-12-07T08:45:07;40.45;;;26.20;;
2898;SDS011;1459;50.864;6.438;2022-12-07T08:47:37;49.22;;;28.60;;
2898;SDS011;1459;50.864;6.438;2022-12-07T08:50:09;41.38;;;27.55;;
2898;SDS011;1459;50.864;6.438;2022-12-07T08:52:37;51.33;;;28.40;;
2898;SDS011;1459;50.864;6.438;2022-12-07T08:55:07;45.80;;;28.38;;
2898;SDS011;1459;50.864;6.438;2022-12-07T08:57:36;58.20;;;28.45;;
2898;SDS011;1459;50.864;6.438;2022-12-07T09:00:05;47.67;;;27.88;;
2898;SDS011;1459;50.864;6.438;2022-12-07T09:02:34;41.67;;;27.33;;
2898;SDS011;1459;50.864;6.438;2022-12-07T09:05:01;43.60;;;26.17;;
2898;SDS011;1459;50.864;6.438;2022-12-07T09:07:29;44.90;;;26.90;;
2898;SDS011;1459;50.864;6.438;2022-12-07T09:09:58;45.60;;;28.00;;
2898;SDS011;1459;50.864;6.438;2022-12-07T09:12:25;42.05;;;25.00;;
2898;SDS011;1459;50.864;6.438;2022-12-07T09:14:52;56.65;;;25.73;;
2898;SDS011;1459;50.864;6.438;2022-12-07T09:17:19;42.03;;;26.55;;
2898;SDS011;1459;50.864;6.438;2022-12-07T09:19:46;45.25;;;27.58;;
2898;SDS011;1459;50.864;6.438;2022-12-07T09:22:13;49.20;;;25.88;;
2898;SDS011;1459;50.864;6.438;2022-12-07T09:24:41;38.35;;;24.63;;
2898;SDS011;1459;50.864;6.438;2022-12-07T09:27:10;41.35;;;26.85;;
2898;SDS011;1459;50.864;6.438;2022-12-07T09:29:37;42.78;;;25.30;;
2898;SDS011;1459;50.864;6.438;2022-12-07T09:32:04;34.70;;;21.30;;
2898;SDS011;1459;50.864;6.438;2022-12-07T09:34:31;36.72;;;21.17;;
2898;SDS011;1459;50.864;6.438;2022-12-07T09:37:00;36.22;;;21.10;;
2898;SDS011;1459;50.864;6.438;2022-12-07T09:39:29;30.77;;;19.20;;
2898;SDS011;1459;50.864;6.438;2022-12-07T09:41:58;33.22;;;20.35;;
2898;SDS011;1459;50.864;6.438;2022-12-07T09:44:28;30.70;;;18.40;;
2898;SDS011;1459;50.864;6.438;2022-12-07T09:46:55;31.25;;;20.70;;
2898;SDS011;1459;50.864;6.438;2022-12-07T09:49:25;37.05;;;17.65;;
2898;SDS011;1459;50.864;6.438;2022-12-07T09:51:59;34.13;;;17.98;;
2898;SDS011;1459;50.864;6.438;2022-12-07T09:54:29;30.73;;;17.90;;
2898;SDS011;1459;50.864;6.438;2022-12-07T09:56:58;30.73;;;17.05;;
2898;SDS011;1459;50.864;6.438;2022-12-07T09:59:25;28.55;;;14.85;;
2898;SDS011;1459;50.864;6.438;2022-12-07T10:01:53;28.30;;;16.20;;
2898;SDS011;1459;50.864;6.438;2022-12-07T10:04:21;29.40;;;15.73;;
2898;SDS011;1459;50.864;6.438;2022-12-07T10:06:50;26.77;;;14.45;;
2898;SDS011;1459;50.864;6.438;2022-12-07T10:09:17;27.33;;;17.48;;
2898;SDS011;1459;50.864;6.438;2022-12-07T10:11:59;24.75;;;16.75;;
2898;SDS011;1459;50.864;6.438;2022-12-07T10:14:28;25.98;;;16.30;;
2898;SDS011;1459;50.864;6.438;2022-12-07T10:16:57;33.53;;;15.43;;
2898;SDS011;1459;50.864;6.438;2022-12-07T10:19:24;32.35;;;18.48;;
2898;SDS011;1459;50.864;6.438;2022-12-07T10:22:03;35.97;;;18.63;;
2898;SDS011;1459;50.864;6.438;2022-12-07T10:24:32;28.92;;;18.38;;
2898;SDS011;1459;50.864;6.438;2022-12-07T10:27:00;25.33;;;17.23;;
2898;SDS011;1459;50.864;6.438;2022-12-07T10:29:30;27.13;;;18.70;;
2898;SDS011;1459;50.864;6.438;2022-12-07T10:32:01;31.42;;;18.70;;
2898;SDS011;1459;50.864;6.438;2022-12-07T10:34:34;34.17;;;18.50;;
2898;SDS011;1459;50.864;6.438;2022-12-07T10:37:14;30.70;;;18.88;;
2898;SDS011;1459;50.864;6.438;2022-12-07T10:39:43;35.13;;;21.13;;
2898;SDS011;1459;50.864;6.438;2022-12-07T10:42:22;32.25;;;21.20;;
2898;SDS011;1459;50.864;6.438;2022-12-07T10:45:06;33.10;;;20.23;;
2898;SDS011;1459;50.864;6.438;2022-12-07T10:47:36;33.28;;;22.05;;
2898;SDS011;1459;50.864;6.438;2022-12-07T10:50:25;35.35;;;22.52;;
2898;SDS011;1459;50.864;6.438;2022-12-07T10:53:13;34.05;;;19.33;;
2898;SDS011;1459;50.864;6.438;2022-12-07T10:55:55;31.52;;;19.67;;
2898;SDS011;1459;50.864;6.438;2022-12-07T10:58:40;28.48;;;17.10;;
2898;SDS011;1459;50.864;6.438;2022-12-07T11:01:21;28.35;;;17.30;;
2898;SDS011;1459;50.864;6.438;2022-12-07T11:03:54;28.75;;;16.75;;
2898;SDS011;1459;50.864;6.438;2022-12-07T11:06:37;25.08;;;14.27;;
2898;SDS011;1459;50.864;6.438;2022-12-07T11:12:13;19.65;;;11.95;;
2898;SDS011;1459;50.864;6.438;2022-12-07T11:14:51;24.42;;;16.02;;
2898;SDS011;1459;50.864;6.438;2022-12-07T11:17:25;25.38;;;16.67;;
2898;SDS011;1459;50.864;6.438;2022-12-07T11:20:02;36.47;;;18.88;;
2898;SDS011;1459;50.864;6.438;2022-12-07T11:22:41;34.53;;;20.15;;
2898;SDS011;1459;50.864;6.438;2022-12-07T11:25:16;25.45;;;18.05;;
2898;SDS011;1459;50.864;6.438;2022-12-07T11:27:54;30.20;;;20.17;;
2898;SDS011;1459;50.864;6.438;2022-12-07T11:30:34;32.17;;;20.98;;
2898;SDS011;1459;50.864;6.438;2022-12-07T11:33:12;30.13;;;19.13;;
2898;SDS011;1459;50.864;6.438;2022-12-07T11:35:47;41.03;;;22.67;;
2898;SDS011;1459;50.864;6.438;2022-12-07T11:38:25;27.35;;;19.73;;
2898;SDS011;1459;50.864;6.438;2022-12-07T11:40:59;30.48;;;21.23;;
2898;SDS011;1459;50.864;6.438;2022-12-07T11:43:48;30.60;;;19.25;;
2898;SDS011;1459;50.864;6.438;2022-12-07T11:46:24;27.98;;;18.70;;
2898;SDS011;1459;50.864;6.438;2022-12-07T11:48:55;26.20;;;17.42;;
2898;SDS011;1459;50.864;6.438;2022-12-07T11:51:28;23.38;;;17.50;;
2898;SDS011;1459;50.864;6.438;2022-12-07T11:54:01;25.85;;;18.98;;
2898;SDS011;1459;50.864;6.438;2022-12-07T11:56:29;34.00;;;17.27;;
2898;SDS011;1459;50.864;6.438;2022-12-07T11:59:02;21.30;;;16.13;;
2898;SDS011;1459;50.864;6.438;2022-12-07T12:01:41;27.05;;;17.10;;
2898;SDS011;1459;50.864;6.438;2022-12-07T12:04:24;23.73;;;17.45;;
2898;SDS011;1459;50.864;6.438;2022-12-07T12:06:57;23.77;;;17.67;;
2898;SDS011;1459;50.864;6.438;2022-12-07T12:09:25;22.67;;;17.55;;
2898;SDS011;1459;50.864;6.438;2022-12-07T12:15:03;18.73;;;16.63;;
2898;SDS011;1459;50.864;6.438;2022-12-07T12:17:52;28.13;;;17.30;;
2898;SDS011;1459;50.864;6.438;2022-12-07T12:20:30;18.05;;;14.27;;
2898;SDS011;1459;50.864;6.438;2022-12-07T12:23:05;19.48;;;14.98;;
2898;SDS011;1459;50.864;6.438;2022-12-07T12:25:37;21.55;;;15.73;;
2898;SDS011;1459;50.864;6.438;2022-12-07T12:28:10;22.02;;;16.02;;
2898;SDS011;1459;50.864;6.438;2022-12-07T12:31:03;18.38;;;14.90;;
2898;SDS011;1459;50.864;6.438;2022-12-07T12:33:34;20.42;;;14.25;;
2898;SDS011;1459;50.864;6.438;2022-12-07T12:36:18;17.55;;;14.23;;
2898;SDS011;1459;50.864;6.438;2022-12-07T12:39:10;17.17;;;13.80;;
2898;SDS011;1459;50.864;6.438;2022-12-07T12:42:00;14.65;;;12.05;;
2898;SDS011;1459;50.864;6.438;2022-12-07T12:50:33;15.73;;;11.60;;
2898;SDS011;1459;50.864;6.438;2022-12-07T12:53:05;688.00;;;89.38;;
2898;SDS011;1459;50.864;6.438;2022-12-07T12:59:21;12.85;;;11.10;;
2898;SDS011;1459;50.864;6.438;2022-12-07T13:02:20;11.52;;;9.15;;
2898;SDS011;1459;50.864;6.438;2022-12-07T13:04:51;17.20;;;10.50;;
2898;SDS011;1459;50.864;6.438;2022-12-07T13:10:43;13.80;;;10.02;;
2898;SDS011;1459;50.864;6.438;2022-12-07T13:13:30;17.05;;;9.50;;
2898;SDS011;1459;50.864;6.438;2022-12-07T13:22:46;19.30;;;13.25;;
2898;SDS011;1459;50.864;6.438;2022-12-07T13:25:22;13.23;;;9.65;;
2898;SDS011;1459;50.864;6.438;2022-12-07T13:28:15;15.43;;;11.00;;
2898;SDS011;1459;50.864;6.438;2022-12-07T13:31:11;17.85;;;11.50;;
2898;SDS011;1459;50.864;6.438;2022-12-07T13:33:49;14.13;;;8.82;;
2898;SDS011;1459;50.864;6.438;2022-12-07T13:36:18;11.15;;;9.00;;
2898;SDS011;1459;50.864;6.438;2022-12-07T13:38:54;13.55;;;9.10;;
2898;SDS011;1459;50.864;6.438;2022-12-07T13:41:24;14.30;;;10.10;;
2898;SDS011;1459;50.864;6.438;2022-12-07T13:44:03;10.05;;;8.98;;
2898;SDS011;1459;50.864;6.438;2022-12-07T13:46:40;15.43;;;10.43;;
2898;SDS011;1459;50.864;6.438;2022-12-07T13:49:17;12.20;;;8.50;;
2898;SDS011;1459;50.864;6.438;2022-12-07T13:51:46;14.63;;;10.18;;
2898;SDS011;1459;50.864;6.438;2022-12-07T13:54:17;13.32;;;10.80;;
2898;SDS011;1459;50.864;6.438;2022-12-07T13:56:47;14.35;;;8.40;;
2898;SDS011;1459;50.864;6.438;2022-12-07T13:59:18;9.48;;;8.57;;
2898;SDS011;1459;50.864;6.438;2022-12-07T14:01:47;12.88;;;9.57;;
2898;SDS011;1459;50.864;6.438;2022-12-07T14:04:16;13.68;;;11.80;;
2898;SDS011;1459;50.864;6.438;2022-12-07T14:06:55;13.98;;;10.10;;
2898;SDS011;1459;50.864;6.438;2022-12-07T14:09:24;33.35;;;19.73;;
2898;SDS011;1459;50.864;6.438;2022-12-07T14:11:54;32.72;;;24.10;;
2898;SDS011;1459;50.864;6.438;2022-12-07T14:14:24;34.35;;;21.98;;
2898;SDS011;1459;50.864;6.438;2022-12-07T14:16:56;12.55;;;9.75;;
2898;SDS011;1459;50.864;6.438;2022-12-07T14:19:42;11.07;;;8.57;;
2898;SDS011;1459;50.864;6.438;2022-12-07T14:22:18;12.15;;;8.80;;
2898;SDS011;1459;50.864;6.438;2022-12-07T14:24:50;9.48;;;7.03;;
2898;SDS011;1459;50.864;6.438;2022-12-07T14:27:29;11.35;;;8.68;;
2898;SDS011;1459;50.864;6.438;2022-12-07T14:30:00;13.93;;;9.50;;
2898;SDS011;1459;50.864;6.438;2022-12-07T14:32:28;11.77;;;8.68;;
2898;SDS011;1459;50.864;6.438;2022-12-07T14:38:34;10.48;;;9.15;;
2898;SDS011;1459;50.864;6.438;2022-12-07T14:41:03;12.80;;;8.63;;
2898;SDS011;1459;50.864;6.438;2022-12-07T14:43:49;29.52;;;18.67;;
2898;SDS011;1459;50.864;6.438;2022-12-07T14:46:18;40.63;;;24.52;;
2898;SDS011;1459;50.864;6.438;2022-12-07T14:48:45;57.05;;;40.22;;
2898;SDS011;1459;50.864;6.438;2022-12-07T14:51:12;18.50;;;12.00;;
2898;SDS011;1459;50.864;6.438;2022-12-07T14:53:40;10.95;;;9.52;;
2898;SDS011;1459;50.864;6.438;2022-12-07T14:56:08;22.30;;;15.25;;
2898;SDS011;1459;50.864;6.438;2022-12-07T14:58:35;15.02;;;11.40;;
2898;SDS011;1459;50.864;6.438;2022-12-07T15:01:02;22.85;;;15.52;;
2898;SDS011;1459;50.864;6.438;2022-12-07T15:03:31;14.25;;;10.32;;
2898;SDS011;1459;50.864;6.438;2022-12-07T15:05:59;12.60;;;9.82;;
2898;SDS011;1459;50.864;6.438;2022-12-07T15:08:26;14.35;;;9.85;;
2898;SDS011;1459;50.864;6.438;2022-12-07T15:10:53;11.45;;;10.25;;
2898;SDS011;1459;50.864;6.438;2022-12-07T15:13:20;12.05;;;10.27;;
2898;SDS011;1459;50.864;6.438;2022-12-07T15:16:04;12.45;;;11.07;;
2898;SDS011;1459;50.864;6.438;2022-12-07T15:18:35;12.80;;;11.40;;
2898;SDS011;1459;50.864;6.438;2022-12-07T15:21:02;18.00;;;11.35;;
2898;SDS011;1459;50.864;6.438;2022-12-07T15:23:29;12.60;;;10.57;;
2898;SDS011;1459;50.864;6.438;2022-12-07T15:25:58;14.15;;;10.65;;
2898;SDS011;1459;50.864;6.438;2022-12-07T15:28:25;14.85;;;10.35;;
2898;SDS011;1459;50.864;6.438;2022-12-07T15:30:52;19.15;;;11.57;;
2898;SDS011;1459;50.864;6.438;2022-12-07T15:33:19;15.93;;;11.80;;
2898;SDS011;1459;50.864;6.438;2022-12-07T15:35:47;15.43;;;11.18;;
2898;SDS011;1459;50.864;6.438;2022-12-07T15:38:14;16.50;;;11.98;;
2898;SDS011;1459;50.864;6.438;2022-12-07T15:40:41;15.90;;;12.35;;
2898;SDS011;1459;50.864;6.438;2022-12-07T15:43:08;19.35;;;12.93;;